Time;durP1;ratioP1;P1;durP2;ratioP2;P2;SDS_P1;SDS_P2;PMS_P1;PMS_P2;Temp;Humidity;BMP_temperature;BMP_pressure;BME280_temperature;BME280_humidity;BME280_pressure;Samples;Min_cycle;Max_cycle;Signal;HPM_P1;HPM_P2
2022/03/14 00:01:49;;;;;;;1.67;1.25;;;13.40;86.60;;;;;;5065345;28;20188;-82
2022/03/14 00:04:19;;;;;;;2.40;1.40;;;13.30;86.90;;;;;;5105125;28;20176;-82
2022/03/14 00:06:48;;;;;;;1.75;1.20;;;13.30;87.20;;;;;;5106572;28;20206;-81
2022/03/14 00:09:18;;;;;;;1.55;1.17;;;13.20;87.90;;;;;;5101081;28;20204;-77
2022/03/14 00:11:44;;;;;;;1.83;1.33;;;13.20;88.00;;;;;;5111073;28;20172;-77
2022/03/14 00:14:10;;;;;;;1.58;1.20;;;13.20;88.30;;;;;;5103427;28;20263;-80
2022/03/14 00:16:43;;;;;;;1.40;1.20;;;13.20;89.20;;;;;;5100896;27;20214;-80
2022/03/14 00:19:13;;;;;;;1.75;1.20;;;13.20;89.60;;;;;;5097669;28;20273;-81
2022/03/14 00:21:39;;;;;;;1.20;1.05;;;13.10;89.60;;;;;;5078755;28;20224;-80
2022/03/14 00:24:11;;;;;;;1.25;1.00;;;13.10;89.80;;;;;;5098249;27;20189;-80
2022/03/14 00:26:39;;;;;;;1.30;1.17;;;13.10;90.60;;;;;;5070056;28;20212;-78
2022/03/14 00:29:07;;;;;;;1.70;1.23;;;13.10;90.30;;;;;;5099907;28;20278;-81
2022/03/14 00:31:35;;;;;;;1.42;1.13;;;13.10;90.40;;;;;;5110456;28;20184;-78
2022/03/14 00:34:03;;;;;;;1.42;1.20;;;13.10;90.80;;;;;;5101874;28;20183;-80
2022/03/14 00:36:29;;;;;;;1.40;1.13;;;13.10;90.60;;;;;;5104309;27;20253;-80
2022/03/14 00:38:55;;;;;;;1.45;1.30;;;13.10;90.80;;;;;;5082800;28;20256;-78
2022/03/14 00:41:23;;;;;;;1.60;1.30;;;13.10;91.00;;;;;;5103972;28;20196;-79
2022/03/14 00:43:49;;;;;;;1.73;1.23;;;13.10;91.20;;;;;;5106871;28;20196;-79
2022/03/14 00:46:16;;;;;;;1.10;1.00;;;13.10;91.20;;;;;;5076603;28;20190;-77
2022/03/14 00:48:42;;;;;;;1.50;1.10;;;13.10;91.30;;;;;;5075466;28;20242;-81
2022/03/14 00:51:08;;;;;;;1.25;1.10;;;13.10;91.40;;;;;;5102531;28;20172;-79
2022/03/14 00:53:38;;;;;;;1.15;1.00;;;13.10;91.40;;;;;;5069477;28;20173;-80
2022/03/14 00:56:05;;;;;;;1.25;1.10;;;13.10;91.80;;;;;;5110504;28;20187;-81
2022/03/14 00:58:33;;;;;;;1.42;1.23;;;13.10;91.60;;;;;;5100247;28;20181;-77
2022/03/14 01:01:01;;;;;;;1.60;1.40;;;13.00;91.80;;;;;;5104469;28;20172;-79
2022/03/14 01:03:27;;;;;;;1.30;1.20;;;13.00;92.00;;;;;;5119157;27;20259;-75
2022/03/14 01:05:53;;;;;;;1.50;1.40;;;13.10;92.20;;;;;;5103141;27;20306;-78
2022/03/14 01:08:18;;;;;;;1.35;1.17;;;13.00;92.40;;;;;;5102346;28;20317;-80
2022/03/14 01:10:44;;;;;;;2.15;1.50;;;13.00;92.60;;;;;;5107910;28;20221;-73
2022/03/14 01:13:12;;;;;;;1.40;1.20;;;13.00;92.70;;;;;;5108887;28;20187;-80
2022/03/14 01:15:38;;;;;;;1.38;1.25;;;13.00;93.30;;;;;;5097858;27;20230;-78
2022/03/14 01:18:05;;;;;;;1.58;1.33;;;13.00;93.00;;;;;;5071493;28;20172;-81
2022/03/14 01:20:31;;;;;;;1.77;1.45;;;13.00;93.10;;;;;;5075180;28;20187;-80
2022/03/14 01:23:03;;;;;;;1.60;1.40;;;13.00;93.20;;;;;;5099719;28;20266;-80
2022/03/14 01:25:28;;;;;;;1.67;1.40;;;13.00;93.80;;;;;;5069810;28;20199;-76
2022/03/14 01:27:55;;;;;;;1.73;1.30;;;13.00;93.50;;;;;;5070197;28;20171;-68
2022/03/14 01:30:24;;;;;;;1.90;1.40;;;13.00;94.00;;;;;;5102429;28;20220;-81
2022/03/14 01:32:50;;;;;;;1.67;1.40;;;13.00;94.40;;;;;;5065435;28;20267;-80
2022/03/14 01:35:18;;;;;;;2.60;1.80;;;12.90;94.60;;;;;;5070216;28;20229;-82
2022/03/14 01:37:49;;;;;;;1.77;1.42;;;12.90;95.10;;;;;;5095991;28;20164;-80
2022/03/14 01:40:18;;;;;;;2.17;1.48;;;12.90;95.80;;;;;;5098286;28;20470;-78
2022/03/14 01:42:44;;;;;;;2.00;1.63;;;12.80;95.70;;;;;;5069679;28;20196;-79
2022/03/14 01:45:16;;;;;;;2.33;1.77;;;12.80;96.20;;;;;;5095465;28;20329;-73
2022/03/14 01:47:43;;;;;;;2.03;1.60;;;12.80;96.80;;;;;;5100147;28;20205;-73
2022/03/14 01:50:13;;;;;;;2.72;1.80;;;12.70;96.80;;;;;;5064439;28;20201;-75
2022/03/14 01:52:42;;;;;;;1.60;1.50;;;12.60;98.00;;;;;;5101304;28;20176;-73
2022/03/14 01:55:08;;;;;;;3.22;1.85;;;12.60;97.70;;;;;;5101050;28;20206;-77
2022/03/14 01:57:35;;;;;;;2.35;1.50;;;12.50;99.50;;;;;;5072214;28;20179;-76
2022/03/14 02:00:02;;;;;;;2.05;1.60;;;12.40;99.20;;;;;;5106466;27;20237;-76
2022/03/14 02:02:32;;;;;;;1.60;1.47;;;12.30;99.90;;;;;;5118740;27;20248;-75
2022/03/14 02:05:00;;;;;;;1.93;1.63;;;12.30;99.90;;;;;;5080066;28;20177;-76
2022/03/14 02:07:31;;;;;;;1.90;1.70;;;12.30;99.90;;;;;;5067285;28;20179;-75
2022/03/14 02:09:57;;;;;;;2.60;1.80;;;12.20;99.90;;;;;;5071205;28;20196;-75
2022/03/14 02:12:22;;;;;;;2.35;1.90;;;12.20;99.90;;;;;;5092026;28;20176;-76
2022/03/14 02:14:53;;;;;;;2.30;1.70;;;12.10;99.90;;;;;;5093977;28;20258;-74
2022/03/14 02:17:21;;;;;;;2.70;1.88;;;12.10;99.90;;;;;;5071730;28;20205;-75
2022/03/14 02:19:47;;;;;;;1.90;1.67;;;12.00;99.90;;;;;;5108988;28;20186;-75
2022/03/14 02:22:14;;;;;;;2.30;2.00;;;12.00;99.90;;;;;;5098399;28;20235;-76
2022/03/14 02:24:46;;;;;;;2.90;2.17;;;12.00;99.90;;;;;;5076428;28;20252;-77
2022/03/14 02:27:14;;;;;;;3.10;2.13;;;11.90;99.90;;;;;;5111379;28;20196;-74
2022/03/14 02:29:42;;;;;;;3.07;2.57;;;11.90;99.90;;;;;;5058252;28;20337;-76
2022/03/14 02:32:11;;;;;;;3.07;2.50;;;11.80;99.90;;;;;;5075291;28;20188;-78
2022/03/14 02:34:36;;;;;;;3.87;2.90;;;11.80;99.90;;;;;;5096517;27;20295;-76
2022/03/14 02:37:04;;;;;;;3.87;3.10;;;11.70;99.90;;;;;;5093859;28;20250;-76
2022/03/14 02:39:32;;;;;;;3.23;2.87;;;11.60;99.90;;;;;;5074119;28;20453;-81
2022/03/14 02:41:59;;;;;;;4.50;3.30;;;11.50;99.90;;;;;;5074875;28;20208;-79
2022/03/14 02:44:27;;;;;;;3.33;3.03;;;11.50;99.90;;;;;;5067939;28;20181;-79
2022/03/14 02:46:53;;;;;;;5.50;3.87;;;11.40;99.90;;;;;;5068479;28;20191;-82
2022/03/14 02:49:21;;;;;;;4.20;3.57;;;11.40;99.90;;;;;;5107995;28;20196;-81
2022/03/14 02:51:52;;;;;;;5.13;4.30;;;11.30;99.90;;;;;;5103630;27;20197;-79
2022/03/14 02:54:20;;;;;;;4.83;3.87;;;11.30;99.90;;;;;;5062814;28;20172;-78
2022/03/14 02:56:45;;;;;;;6.30;4.17;;;11.20;99.90;;;;;;5070631;28;20184;-79
2022/03/14 02:59:11;;;;;;;4.77;3.83;;;11.20;99.90;;;;;;5075716;28;20173;-77
2022/03/14 03:01:39;;;;;;;4.87;4.30;;;11.10;99.90;;;;;;5101667;28;20283;-81
2022/03/14 03:04:07;;;;;;;4.97;4.07;;;11.10;99.90;;;;;;5107717;27;20203;-79
2022/03/14 03:06:35;;;;;;;5.50;3.97;;;11.00;99.90;;;;;;5072465;28;20204;-81
2022/03/14 03:09:03;;;;;;;5.07;4.43;;;11.00;99.90;;;;;;5074041;28;20203;-81
2022/03/14 03:11:30;;;;;;;5.43;4.60;;;11.00;99.90;;;;;;5107980;28;20171;-82
2022/03/14 03:13:59;;;;;;;6.47;4.67;;;11.00;99.90;;;;;;5075945;28;20212;-75
2022/03/14 03:16:25;;;;;;;5.70;4.20;;;11.00;99.90;;;;;;5101974;28;20168;-80
2022/03/14 03:18:50;;;;;;;4.83;3.83;;;10.90;99.90;;;;;;5107358;28;20199;-79
2022/03/14 03:21:19;;;;;;;4.90;4.00;;;10.90;99.90;;;;;;5075637;28;20180;-80
2022/03/14 03:23:44;;;;;;;5.87;4.03;;;11.00;99.90;;;;;;5099049;28;20172;-81
2022/03/14 03:26:10;;;;;;;4.70;4.10;;;11.00;99.90;;;;;;5068384;28;20180;-80
2022/03/14 03:28:36;;;;;;;5.00;4.00;;;11.00;99.90;;;;;;5079095;28;20207;-80
2022/03/14 03:31:06;;;;;;;4.97;4.20;;;11.00;99.90;;;;;;5090799;28;20176;-78
2022/03/14 03:33:32;;;;;;;4.87;4.27;;;11.00;99.90;;;;;;5075590;28;20187;-80
2022/03/14 03:35:58;;;;;;;5.57;4.13;;;11.00;99.90;;;;;;5073853;28;20229;-79
2022/03/14 03:38:26;;;;;;;5.50;4.30;;;11.00;99.90;;;;;;5090878;28;20173;-77
2022/03/14 03:40:54;;;;;;;4.73;3.80;;;11.00;99.90;;;;;;5068226;28;20322;-79
2022/03/14 03:43:22;;;;;;;4.47;3.80;;;11.00;99.90;;;;;;5073943;28;20172;-78
2022/03/14 03:45:50;;;;;;;4.73;4.23;;;11.00;99.90;;;;;;5099513;28;20185;-78
2022/03/14 03:48:20;;;;;;;4.40;3.93;;;11.00;99.90;;;;;;5063323;28;20362;-78
2022/03/14 03:50:46;;;;;;;4.17;3.77;;;11.00;99.90;;;;;;5101391;28;20262;-76
2022/03/14 03:53:12;;;;;;;4.00;3.50;;;11.00;99.90;;;;;;5072590;28;20272;-74
2022/03/14 03:55:38;;;;;;;4.10;3.63;;;11.00;99.90;;;;;;5094735;28;20193;-77
2022/03/14 03:58:03;;;;;;;6.37;3.87;;;11.00;99.90;;;;;;5097225;28;20172;-77
2022/03/14 04:00:29;;;;;;;3.80;3.30;;;11.00;99.90;;;;;;5074168;28;20203;-77
2022/03/14 04:02:57;;;;;;;4.53;3.60;;;11.00;99.90;;;;;;5102182;28;20176;-77
2022/03/14 04:05:27;;;;;;;3.77;3.27;;;11.00;99.90;;;;;;5102509;28;20187;-77
2022/03/14 04:07:58;;;;;;;4.30;3.30;;;11.00;99.90;;;;;;5104233;28;20195;-77
2022/03/14 04:10:30;;;;;;;4.10;3.43;;;11.00;99.90;;;;;;5104317;28;20230;-76
2022/03/14 04:13:02;;;;;;;3.80;3.40;;;11.00;99.90;;;;;;5107478;28;20176;-74
2022/03/14 04:15:30;;;;;;;4.00;3.27;;;11.00;99.90;;;;;;5101479;28;20299;-74
2022/03/14 04:18:00;;;;;;;3.77;3.13;;;11.00;99.90;;;;;;5109013;28;20231;-73
2022/03/14 04:20:26;;;;;;;3.63;3.20;;;11.00;99.90;;;;;;5098840;28;20191;-77
2022/03/14 04:22:52;;;;;;;4.07;3.53;;;11.00;99.90;;;;;;5106649;28;20242;-75
2022/03/14 04:25:17;;;;;;;4.13;3.27;;;11.00;99.90;;;;;;5107889;27;20172;-75
2022/03/14 04:27:45;;;;;;;4.30;3.03;;;11.00;99.90;;;;;;5099826;28;20195;-76
2022/03/14 04:30:16;;;;;;;4.17;3.30;;;11.10;99.90;;;;;;5075893;28;20223;-75
2022/03/14 04:32:42;;;;;;;3.70;3.07;;;11.10;99.90;;;;;;5108092;28;20234;-73
2022/03/14 04:35:10;;;;;;;3.27;2.90;;;11.00;99.90;;;;;;5104962;27;20279;-76
2022/03/14 04:37:36;;;;;;;3.57;3.10;;;11.00;99.90;;;;;;5067531;28;20268;-75
2022/03/14 04:40:03;;;;;;;3.70;2.97;;;11.00;99.90;;;;;;5066353;28;20196;-76
2022/03/14 04:42:34;;;;;;;2.80;2.40;;;11.00;99.90;;;;;;5074681;28;20482;-75
2022/03/14 04:45:00;;;;;;;3.40;2.23;;;11.00;99.90;;;;;;5069981;28;20195;-74
2022/03/14 04:47:27;;;;;;;2.80;2.20;;;11.00;99.90;;;;;;5075169;28;20235;-75
2022/03/14 04:49:53;;;;;;;2.60;2.10;;;11.00;99.90;;;;;;5097909;28;20200;-76
2022/03/14 04:52:21;;;;;;;2.33;1.93;;;11.00;99.90;;;;;;5106660;27;20180;-75
2022/03/14 04:54:47;;;;;;;2.30;1.80;;;11.00;99.90;;;;;;5105008;27;20263;-73
2022/03/14 04:57:15;;;;;;;2.97;1.97;;;11.00;99.90;;;;;;5077206;28;20263;-74
2022/03/14 04:59:43;;;;;;;3.00;2.10;;;11.00;99.90;;;;;;5103332;28;20176;-75
2022/03/14 05:02:08;;;;;;;2.17;1.77;;;10.90;99.90;;;;;;5065995;28;20212;-75
2022/03/14 05:04:37;;;;;;;2.17;1.90;;;10.90;99.90;;;;;;5070525;28;20394;-73
2022/03/14 05:07:03;;;;;;;2.17;1.77;;;10.90;99.90;;;;;;5063340;28;20180;-74
2022/03/14 05:09:30;;;;;;;2.30;1.80;;;10.90;99.90;;;;;;5079186;28;20288;-76
2022/03/14 05:11:56;;;;;;;2.27;1.53;;;10.90;99.90;;;;;;5112609;28;20221;-74
2022/03/14 05:14:24;;;;;;;2.20;1.80;;;10.90;99.90;;;;;;5068677;28;20200;-75
2022/03/14 05:16:52;;;;;;;2.33;1.50;;;10.80;99.90;;;;;;5106057;28;20195;-75
2022/03/14 05:19:20;;;;;;;2.10;1.70;;;10.80;99.90;;;;;;5101059;28;20180;-75
2022/03/14 05:21:46;;;;;;;2.00;1.40;;;10.80;99.90;;;;;;5110591;28;20218;-75
2022/03/14 05:24:11;;;;;;;1.60;1.50;;;10.80;99.90;;;;;;5073706;28;20199;-73
2022/03/14 05:26:39;;;;;;;2.40;1.33;;;10.80;99.90;;;;;;5102615;28;20176;-76
2022/03/14 05:29:05;;;;;;;2.10;1.80;;;10.80;99.90;;;;;;5101515;28;20189;-75
2022/03/14 05:31:33;;;;;;;1.97;1.50;;;10.80;99.90;;;;;;5066467;28;20363;-75
2022/03/14 05:34:00;;;;;;;2.13;1.40;;;10.80;99.90;;;;;;5097920;28;20219;-73
2022/03/14 05:36:30;;;;;;;2.10;1.57;;;10.80;99.90;;;;;;5076226;28;20180;-75
2022/03/14 05:38:55;;;;;;;1.20;1.10;;;10.80;99.90;;;;;;5077719;28;20184;-76
2022/03/14 05:41:21;;;;;;;1.50;1.27;;;10.80;99.90;;;;;;5075395;28;20203;-70
2022/03/14 05:43:47;;;;;;;1.73;1.40;;;10.80;99.90;;;;;;5106836;28;20249;-76
2022/03/14 05:46:15;;;;;;;3.57;1.30;;;10.80;99.90;;;;;;5077815;28;20211;-75
2022/03/14 05:48:40;;;;;;;2.77;1.40;;;10.80;99.90;;;;;;5093551;28;20261;-74
2022/03/14 05:51:08;;;;;;;1.50;1.13;;;10.80;99.90;;;;;;5074069;28;20172;-74
2022/03/14 05:53:34;;;;;;;1.30;1.20;;;10.80;99.90;;;;;;5073634;28;20176;-74
2022/03/14 05:56:00;;;;;;;2.23;1.40;;;10.80;99.90;;;;;;5094355;28;20173;-73
2022/03/14 05:58:28;;;;;;;1.93;1.40;;;10.80;99.90;;;;;;5114554;27;20176;-75
2022/03/14 06:00:54;;;;;;;1.97;1.47;;;10.80;99.90;;;;;;5102662;28;20204;-76
2022/03/14 06:03:20;;;;;;;2.43;1.30;;;10.80;99.90;;;;;;5109536;28;20195;-76
2022/03/14 06:05:49;;;;;;;1.60;1.30;;;10.80;99.90;;;;;;5101163;28;20164;-73
2022/03/14 06:08:16;;;;;;;1.57;1.20;;;10.80;99.90;;;;;;5112257;28;20191;-76
2022/03/14 06:10:46;;;;;;;1.60;1.40;;;10.80;99.90;;;;;;5103193;28;20290;-74
2022/03/14 06:13:15;;;;;;;1.53;1.30;;;10.80;99.90;;;;;;5104914;28;20271;-73
2022/03/14 06:15:45;;;;;;;1.97;1.40;;;10.80;99.90;;;;;;5069155;28;20185;-76
2022/03/14 06:18:13;;;;;;;1.90;1.20;;;10.80;99.90;;;;;;5084028;28;20221;-74
2022/03/14 06:20:39;;;;;;;2.30;1.50;;;10.80;99.90;;;;;;5069100;28;20199;-76
2022/03/14 06:23:04;;;;;;;1.93;1.50;;;10.80;99.90;;;;;;5101948;28;20206;-74
2022/03/14 06:25:32;;;;;;;1.40;1.30;;;10.80;99.90;;;;;;5083455;28;20176;-76
2022/03/14 06:27:58;;;;;;;1.40;1.30;;;10.80;99.90;;;;;;5087398;28;20196;-76
2022/03/14 06:30:24;;;;;;;1.57;1.47;;;10.80;99.90;;;;;;5104741;27;20218;-73
2022/03/14 06:32:52;;;;;;;1.60;1.40;;;10.90;99.90;;;;;;5093582;28;20180;-75
2022/03/14 06:35:19;;;;;;;2.50;1.40;;;10.90;99.90;;;;;;5104590;28;20181;-76
2022/03/14 06:37:49;;;;;;;2.17;1.50;;;10.90;99.90;;;;;;5071190;28;20270;-75
2022/03/14 06:40:17;;;;;;;3.47;1.20;;;10.80;99.90;;;;;;5105853;28;20201;-76
2022/03/14 06:42:49;;;;;;;2.63;1.27;;;10.90;99.90;;;;;;5073765;28;20184;-76
2022/03/14 06:45:20;;;;;;;2.30;1.20;;;10.90;99.90;;;;;;5112789;27;20250;-74
2022/03/14 06:47:48;;;;;;;2.13;1.27;;;10.90;99.90;;;;;;5083056;28;20187;-76
2022/03/14 06:52:49;;;;;;;2.23;1.30;;;10.90;99.90;;;;;;5878651;23;20247;-73
2022/03/14 06:55:15;;;;;;;2.23;1.60;;;10.90;99.90;;;;;;5050054;28;20209;-72
2022/03/14 06:57:41;;;;;;;2.00;1.17;;;10.90;99.90;;;;;;5025314;28;20342;-72
2022/03/14 07:00:10;;;;;;;1.70;1.20;;;11.00;99.90;;;;;;5053269;28;20218;-74
2022/03/14 07:02:44;;;;;;;1.53;1.40;;;11.00;99.90;;;;;;5047324;28;20177;-74
2022/03/14 07:05:21;;;;;;;2.07;1.30;;;11.00;99.90;;;;;;5044190;28;20207;-74
2022/03/14 07:07:55;;;;;;;1.97;1.33;;;11.00;99.90;;;;;;5065004;28;20187;-74
2022/03/14 07:10:21;;;;;;;1.53;1.27;;;11.00;99.90;;;;;;5057168;28;20196;-73
2022/03/14 07:12:49;;;;;;;1.97;1.27;;;11.10;99.90;;;;;;5056035;28;20181;-73
2022/03/14 07:15:18;;;;;;;1.63;1.20;;;11.10;99.90;;;;;;5061790;28;20180;-73
2022/03/14 07:17:44;;;;;;;1.90;1.30;;;11.10;99.90;;;;;;5055176;28;20283;-73
2022/03/14 07:20:13;;;;;;;2.23;1.10;;;11.10;99.90;;;;;;5053750;28;20271;-74
2022/03/14 07:22:51;;;;;;;1.50;1.20;;;11.10;99.90;;;;;;5064547;28;20180;-73
2022/03/14 07:25:40;;;;;;;2.20;1.27;;;11.20;99.90;;;;;;5051268;28;20204;-74
2022/03/14 07:28:09;;;;;;;2.23;1.33;;;11.20;99.90;;;;;;5043710;28;20189;-72
2022/03/14 07:30:36;;;;;;;3.33;1.40;;;11.20;99.90;;;;;;5046474;28;20208;-75
2022/03/14 07:33:04;;;;;;;2.40;1.30;;;11.30;99.90;;;;;;5048431;28;20218;-75
2022/03/14 07:35:31;;;;;;;2.23;1.30;;;11.30;99.90;;;;;;5052690;28;20188;-73
2022/03/14 07:38:01;;;;;;;2.37;1.27;;;11.30;99.90;;;;;;5047959;28;20205;-75
2022/03/14 07:40:27;;;;;;;2.03;1.20;;;11.30;99.90;;;;;;5050366;28;20180;-75
2022/03/14 07:42:54;;;;;;;1.47;1.13;;;11.40;99.90;;;;;;5044456;28;20195;-73
2022/03/14 07:45:21;;;;;;;1.73;1.00;;;11.40;99.90;;;;;;5072375;28;20250;-75
2022/03/14 07:47:47;;;;;;;1.47;1.20;;;11.40;99.90;;;;;;5065645;28;20181;-74
2022/03/14 07:50:17;;;;;;;1.67;1.27;;;11.50;99.90;;;;;;5066180;28;20281;-74
2022/03/14 07:52:49;;;;;;;1.52;1.10;;;11.50;99.90;;;;;;5054294;28;20264;-73
2022/03/14 07:55:15;;;;;;;1.27;0.97;;;11.50;99.90;;;;;;5049240;28;20209;-74
2022/03/14 07:57:44;;;;;;;2.10;1.30;;;11.50;99.90;;;;;;5051757;28;20212;-72
2022/03/14 08:00:18;;;;;;;1.40;1.05;;;11.60;99.90;;;;;;5056592;28;20193;-75
2022/03/14 08:02:45;;;;;;;1.73;1.20;;;11.60;99.90;;;;;;5054103;28;20197;-74
2022/03/14 08:05:16;;;;;;;2.00;1.20;;;11.70;99.90;;;;;;5054720;28;20300;-74
2022/03/14 08:07:46;;;;;;;2.05;1.20;;;11.70;99.90;;;;;;5048835;28;20179;-74
2022/03/14 08:10:13;;;;;;;2.17;1.13;;;11.70;99.90;;;;;;5045316;28;20206;-75
2022/03/14 08:12:49;;;;;;;1.67;0.90;;;11.80;99.90;;;;;;5047487;28;20268;-75
2022/03/14 08:15:28;;;;;;;2.53;1.30;;;11.80;99.90;;;;;;5055359;28;20195;-74
2022/03/14 08:17:59;;;;;;;3.65;1.50;;;11.80;99.90;;;;;;5051068;28;20190;-74
2022/03/14 08:20:26;;;;;;;2.40;1.40;;;11.90;99.90;;;;;;5049341;28;20248;-73
2022/03/14 08:22:53;;;;;;;2.75;1.40;;;11.90;99.90;;;;;;5037140;28;20177;-73
2022/03/14 08:25:20;;;;;;;3.40;1.70;;;12.00;99.90;;;;;;5047271;28;20188;-73
2022/03/14 08:27:46;;;;;;;2.10;1.23;;;12.00;99.90;;;;;;5056747;28;20323;-74
2022/03/14 08:30:13;;;;;;;2.55;1.33;;;12.10;99.90;;;;;;5038789;28;20201;-73
2022/03/14 08:32:42;;;;;;;3.03;1.48;;;12.10;99.90;;;;;;5070523;28;20181;-74
2022/03/14 08:35:09;;;;;;;1.45;1.15;;;12.20;99.90;;;;;;5055810;28;20245;-74
2022/03/14 08:37:39;;;;;;;2.85;1.60;;;12.20;99.90;;;;;;5040258;28;20373;-74
2022/03/14 08:40:08;;;;;;;2.55;1.48;;;12.30;99.90;;;;;;5049039;28;20201;-73
2022/03/14 08:42:40;;;;;;;2.33;1.40;;;12.30;99.90;;;;;;5056484;28;20183;-74
2022/03/14 08:45:11;;;;;;;3.05;1.40;;;12.30;99.90;;;;;;5053130;28;20181;-72
2022/03/14 08:47:37;;;;;;;2.65;1.38;;;12.30;99.90;;;;;;5056005;28;20182;-74
2022/03/14 08:50:08;;;;;;;3.58;1.73;;;12.30;99.90;;;;;;5061750;28;20196;-71
2022/03/14 08:52:40;;;;;;;4.63;1.55;;;12.40;99.90;;;;;;5076460;28;20164;-73
2022/03/14 08:55:06;;;;;;;3.30;1.27;;;12.40;99.90;;;;;;5076297;28;20168;-74
2022/03/14 08:57:32;;;;;;;2.00;1.27;;;12.40;99.90;;;;;;5047542;28;20518;-74
2022/03/14 08:59:58;;;;;;;1.73;1.25;;;12.40;99.90;;;;;;5051507;28;20289;-74
2022/03/14 09:02:23;;;;;;;2.53;1.48;;;12.40;99.90;;;;;;5052026;28;20208;-73
2022/03/14 09:04:51;;;;;;;2.45;1.42;;;12.40;99.90;;;;;;5043800;28;20211;-72
2022/03/14 09:07:35;;;;;;;2.15;1.40;;;12.50;99.90;;;;;;5052857;28;20205;-74
2022/03/14 09:10:08;;;;;;;1.73;1.20;;;12.60;99.90;;;;;;5040402;28;20217;-74
2022/03/14 09:12:34;;;;;;;1.85;1.30;;;12.60;99.90;;;;;;5051482;28;20265;-74
2022/03/14 09:15:03;;;;;;;2.95;1.40;;;12.60;99.90;;;;;;5051921;28;20198;-74
2022/03/14 09:17:30;;;;;;;2.33;1.30;;;12.60;99.90;;;;;;5043594;28;20260;-75
2022/03/14 09:19:55;;;;;;;2.25;1.40;;;12.70;99.90;;;;;;5051279;28;20181;-72
2022/03/14 09:22:22;;;;;;;2.35;1.52;;;12.70;99.90;;;;;;5053005;28;20497;-73
2022/03/14 09:24:55;;;;;;;1.95;1.20;;;12.80;99.90;;;;;;5055865;28;20239;-74
2022/03/14 09:27:23;;;;;;;2.42;1.20;;;12.80;99.90;;;;;;5053871;28;20205;-73
2022/03/14 09:29:55;;;;;;;2.38;1.20;;;12.80;99.90;;;;;;5042899;28;20216;-73
2022/03/14 09:32:20;;;;;;;1.75;1.30;;;12.90;99.90;;;;;;5055520;28;20207;-70
2022/03/14 09:34:46;;;;;;;1.83;1.02;;;12.90;99.90;;;;;;5051501;28;20175;-74
2022/03/14 09:37:12;;;;;;;2.25;1.10;;;12.90;99.90;;;;;;5051135;28;20189;-74
2022/03/14 09:39:40;;;;;;;2.70;1.50;;;12.90;99.90;;;;;;5044884;28;20178;-74
2022/03/14 09:42:10;;;;;;;3.42;1.52;;;13.00;99.90;;;;;;5051999;28;20177;-74
2022/03/14 09:44:36;;;;;;;1.58;1.13;;;13.00;99.90;;;;;;5054763;28;20283;-74
2022/03/14 09:47:02;;;;;;;2.08;1.30;;;13.10;99.90;;;;;;5060431;28;20300;-75
2022/03/14 09:49:29;;;;;;;1.77;1.20;;;13.10;99.90;;;;;;5042854;28;20240;-74
2022/03/14 09:51:55;;;;;;;1.27;1.00;;;13.20;99.90;;;;;;5035296;28;20275;-74
2022/03/14 09:54:21;;;;;;;1.30;1.00;;;13.20;99.90;;;;;;5052186;28;20174;-74
2022/03/14 09:56:50;;;;;;;1.00;0.85;;;13.30;99.90;;;;;;5045159;28;20285;-74
2022/03/14 09:59:16;;;;;;;2.50;1.30;;;13.30;99.90;;;;;;5046061;28;20250;-74
2022/03/14 10:01:42;;;;;;;3.08;1.15;;;13.50;99.90;;;;;;5036915;28;20242;-73
2022/03/14 10:04:09;;;;;;;1.42;1.17;;;13.50;99.90;;;;;;5066026;28;20191;-73
2022/03/14 10:06:40;;;;;;;1.75;0.90;;;13.60;99.90;;;;;;5057156;28;20381;-73
2022/03/14 10:09:07;;;;;;;1.45;0.80;;;13.60;99.90;;;;;;5045180;28;20201;-73
2022/03/14 10:11:32;;;;;;;1.30;0.70;;;13.70;99.90;;;;;;5056279;28;20197;-74
2022/03/14 10:14:02;;;;;;;1.20;0.90;;;13.70;99.90;;;;;;5052624;28;20173;-73
2022/03/14 10:16:28;;;;;;;2.85;0.80;;;13.80;99.90;;;;;;5039746;28;20166;-73
2022/03/14 10:18:56;;;;;;;2.47;1.00;;;14.00;99.90;;;;;;5046092;28;20184;-73
2022/03/14 10:21:34;;;;;;;2.47;1.10;;;14.20;99.90;;;;;;5046745;28;20186;-73
2022/03/14 10:24:10;;;;;;;1.30;1.05;;;14.40;99.90;;;;;;5054349;28;20203;-74
2022/03/14 10:26:41;;;;;;;1.35;0.90;;;14.50;99.90;;;;;;5043224;28;20181;-73
2022/03/14 10:29:12;;;;;;;1.42;0.80;;;14.60;99.90;;;;;;5040307;28;20212;-73
2022/03/14 10:31:45;;;;;;;1.90;0.90;;;14.60;99.90;;;;;;5039262;28;20162;-73
2022/03/14 10:34:12;;;;;;;1.08;0.98;;;14.60;99.90;;;;;;5042635;28;20198;-72
2022/03/14 10:36:45;;;;;;;1.48;0.95;;;14.60;99.90;;;;;;5038360;28;20189;-73
2022/03/14 10:39:25;;;;;;;1.08;0.82;;;14.70;99.90;;;;;;5039817;28;20178;-74
2022/03/14 10:42:02;;;;;;;1.10;0.80;;;14.70;99.90;;;;;;5050228;28;20304;-74
2022/03/14 10:44:28;;;;;;;0.98;0.80;;;14.80;99.90;;;;;;5044286;28;20181;-73
2022/03/14 10:47:01;;;;;;;1.45;1.00;;;14.70;99.90;;;;;;5047215;28;20186;-73
2022/03/14 10:49:32;;;;;;;1.73;1.00;;;14.80;99.90;;;;;;5051886;28;20231;-73
2022/03/14 10:52:00;;;;;;;1.10;0.80;;;14.90;99.90;;;;;;5045158;28;20197;-73
2022/03/14 10:54:27;;;;;;;1.13;0.77;;;15.30;99.90;;;;;;5050086;28;20169;-73
2022/03/14 10:57:09;;;;;;;1.30;0.80;;;15.60;99.90;;;;;;5050659;28;20190;-73
2022/03/14 10:59:40;;;;;;;1.70;1.15;;;15.90;99.90;;;;;;5042916;28;20193;-74
2022/03/14 11:02:10;;;;;;;1.30;1.13;;;16.10;99.90;;;;;;5046116;28;20207;-74
2022/03/14 11:04:53;;;;;;;1.50;1.05;;;16.20;99.90;;;;;;5050370;28;20186;-74
2022/03/14 11:07:23;;;;;;;1.88;0.90;;;16.20;99.90;;;;;;5037980;28;20189;-72
2022/03/14 11:09:56;;;;;;;1.27;1.00;;;16.20;99.90;;;;;;5058982;28;20209;-74
2022/03/14 11:12:23;;;;;;;1.20;0.93;;;16.30;99.90;;;;;;5042536;28;20173;-74
2022/03/14 11:15:12;;;;;;;1.77;1.00;;;16.40;99.90;;;;;;5039262;28;20177;-74
2022/03/14 11:17:38;;;;;;;2.38;0.90;;;16.50;99.90;;;;;;5047728;28;20284;-74
2022/03/14 11:20:04;;;;;;;1.80;1.10;;;16.60;99.90;;;;;;5053955;28;20201;-74
2022/03/14 11:22:31;;;;;;;2.08;1.10;;;16.80;99.90;;;;;;5056848;28;20194;-73
2022/03/14 11:25:00;;;;;;;1.33;0.90;;;16.90;99.90;;;;;;5074666;28;20205;-74
2022/03/14 11:27:36;;;;;;;1.65;0.82;;;17.00;99.90;;;;;;5058284;28;20173;-74
2022/03/14 11:30:10;;;;;;;1.33;1.02;;;16.90;99.90;;;;;;5056290;28;20193;-71
2022/03/14 11:32:41;;;;;;;1.05;0.80;;;16.90;99.90;;;;;;5074027;28;20205;-74
2022/03/14 11:35:08;;;;;;;2.00;0.90;;;16.70;99.90;;;;;;5048040;28;20169;-72
2022/03/14 11:37:42;;;;;;;2.58;1.02;;;16.50;99.90;;;;;;5057551;28;20211;-74
2022/03/14 11:40:08;;;;;;;1.08;0.88;;;16.30;99.90;;;;;;5057252;28;20258;-74
2022/03/14 11:42:34;;;;;;;3.40;1.33;;;16.10;99.90;;;;;;5074268;28;20209;-74
2022/03/14 11:45:03;;;;;;;1.33;0.80;;;15.90;99.90;;;;;;5073471;28;20175;-74
2022/03/14 11:47:32;;;;;;;1.40;0.88;;;15.80;99.90;;;;;;5067708;28;20296;-74
2022/03/14 11:49:59;;;;;;;2.47;0.80;;;15.70;99.90;;;;;;5045423;28;20197;-74
2022/03/14 11:52:38;;;;;;;1.13;0.70;;;15.60;99.90;;;;;;5060605;28;20225;-73
2022/03/14 11:55:17;;;;;;;1.95;0.88;;;15.50;99.90;;;;;;5076545;28;20165;-74
2022/03/14 11:57:47;;;;;;;1.85;0.90;;;15.30;99.90;;;;;;5047227;28;20197;-74
2022/03/14 12:00:24;;;;;;;1.17;0.73;;;15.30;99.90;;;;;;5054272;28;20203;-73
2022/03/14 12:02:51;;;;;;;0.95;0.63;;;15.10;99.90;;;;;;5058235;28;20253;-74
2022/03/14 12:05:32;;;;;;;1.80;0.80;;;15.00;99.90;;;;;;5053329;28;20271;-74
2022/03/14 12:08:06;;;;;;;2.90;1.05;;;15.00;99.90;;;;;;5054589;28;20204;-73
2022/03/14 12:10:33;;;;;;;1.90;0.70;;;14.80;99.90;;;;;;5046927;28;20201;-74
2022/03/14 12:13:03;;;;;;;0.68;0.50;;;14.70;99.90;;;;;;5052334;28;20173;-73
2022/03/14 12:15:42;;;;;;;2.13;0.95;;;14.60;99.90;;;;;;5053873;28;20193;-73
2022/03/14 12:18:26;;;;;;;1.83;0.90;;;14.60;99.90;;;;;;5051695;28;20248;-74
2022/03/14 12:20:54;;;;;;;0.82;0.70;;;14.50;99.90;;;;;;5037850;28;20209;-74
2022/03/14 12:23:24;;;;;;;1.08;0.70;;;14.60;99.90;;;;;;5053181;28;20451;-69
2022/03/14 12:25:52;;;;;;;2.33;0.80;;;14.70;99.90;;;;;;5060997;28;20188;-74
2022/03/14 12:28:34;;;;;;;2.35;0.90;;;14.90;99.90;;;;;;5053735;28;20273;-72
2022/03/14 12:31:16;;;;;;;1.42;0.60;;;15.10;99.90;;;;;;5069127;28;20185;-73
2022/03/14 12:33:43;;;;;;;1.33;0.60;;;15.30;99.90;;;;;;5047011;28;20196;-74
2022/03/14 12:36:24;;;;;;;1.85;0.80;;;15.30;99.90;;;;;;5053056;28;20265;-73
2022/03/14 12:39:12;;;;;;;2.55;0.90;;;15.30;99.90;;;;;;5048775;28;20208;-73
2022/03/14 12:41:43;;;;;;;1.88;0.60;;;15.40;99.90;;;;;;5038217;28;20178;-74
2022/03/14 12:44:22;;;;;;;2.65;0.77;;;15.50;99.90;;;;;;5052555;28;20244;-74
2022/03/14 12:46:55;;;;;;;1.35;0.70;;;15.70;99.90;;;;;;5051574;28;20263;-74
2022/03/14 12:49:49;;;;;;;1.73;0.77;;;15.90;99.90;;;;;;5051978;28;20205;-74
2022/03/14 12:52:19;;;;;;;1.98;0.90;;;16.00;99.90;;;;;;5047791;28;20202;-74
2022/03/14 12:54:48;;;;;;;1.63;0.90;;;16.00;99.90;;;;;;5047109;28;20253;-74
2022/03/14 12:57:17;;;;;;;3.17;0.80;;;16.00;99.90;;;;;;5048104;28;20177;-74
2022/03/14 12:59:48;;;;;;;1.23;0.80;;;16.00;99.90;;;;;;5053408;28;20182;-74